http://www.ohio.gov http://www.dot.state.oh.us
W W W . B U C K E Y E T R A F F I C . O R G

1-SR49 @ SR249 (200000) Status Air Temp Sfc Temp Sub Temp Dew Temp Wind Precip Traffic Updated
Sensor [A]: Atmospheric - 50.0 - - - 8.1 / N - - 9/30/2014 9:42:10 AM
Sensor [0]: SR49 NB Lane Dry - 68.0 - - - - 1 / 9.9 9/30/2014 9:42:10 AM
Sensor [1]: SR 249 EB Lane Dry - 68.0 - - - - 1 / 9.9 9/30/2014 9:42:10 AM
2-SR-309 @ SR-235 (200001) Status Air Temp Sfc Temp Sub Temp Dew Temp Wind Precip Traffic Updated
Sensor [A]: Atmospheric - 55.0 - - 54.1 5.6 / N - - 9/30/2014 9:41:23 AM
Sensor [0]: SR309 EB Wet - 60.8 - - - - - 9/30/2014 9:41:23 AM
3-US24 @ Indiana Line (200002) Status Air Temp Sfc Temp Sub Temp Dew Temp Wind Precip Traffic Updated
Sensor [A]: Atmospheric - 51.3 - - 49.5 6.2 / N - - 9/30/2014 9:42:12 AM
Sensor [0]: EB Driving Dry - 62.6 73.4 - - - 0 / 9.9 9/30/2014 9:42:12 AM
Sensor [1]: WB Driving Dry - 62.6 - - - - 0 / 9.9 9/30/2014 9:42:12 AM
4-US224 @ SR190 (200003) Status Air Temp Sfc Temp Sub Temp Dew Temp Wind Precip Traffic Updated
Sensor [A]: Atmospheric - 53.4 - - 52.2 1.2 / W - - 9/30/2014 9:39:55 AM
Sensor [0]: Eastbound Driving Lane Dry - 59.9 - - - - 1 / 65.2 9/30/2014 9:39:55 AM
5- US30 @ SR49 North (200004) Status Air Temp Sfc Temp Sub Temp Dew Temp Wind Precip Traffic Updated
Sensor [A]: Atmospheric - 48.9 - - 49.1 - - - 9/25/2014 8:32:33 AM
Sensor [0]: US30 Westbound Driving Dry - 57.2 - - - - 0 / 9.9 9/25/2014 8:32:33 AM
Sensor [1]: US30 Eastbound Driving Dry - 57.2 - - - - 1 / 9.9 9/25/2014 8:32:33 AM
6-US23 @ SLM 11.2 (200005) Status Air Temp Sfc Temp Sub Temp Dew Temp Wind Precip Traffic Updated
Sensor [A]: Atmospheric - 75.2 - - 47.1 3.1 / W - - 9/29/2014 7:03:08 PM
Sensor [0]: US23 NB Driving Lane Bridge Deck Dry - 82.4 - - - - 0 / 9.9 9/29/2014 7:03:08 PM
Sensor [1]: US23 NB Passing Lane Bridge Deck Dry - 80.6 - - - - 0 / 9.9 9/29/2014 7:03:08 PM
Sensor [2]: US23 SB Passing Lane Dry - 82.4 - - - - 1 / 9.9 9/29/2014 7:03:08 PM
Sensor [3]: US23 SB Driving Lane Dry - 82.4 - - - - 0 / 9.9 9/29/2014 7:03:08 PM
7-US30 Bypass @ SR4 (200006) Status Air Temp Sfc Temp Sub Temp Dew Temp Wind Precip Traffic Updated
Sensor [A]: Atmospheric - 56.5 - - 56.5 11.8 / NW Rain / 0.1 - 9/30/2014 9:28:56 AM
Sensor [0]: US30 East Bound Driving Lane No Report - - - - - - 20 / 60.9 9/30/2014 9:28:56 AM
Sensor [1]: US30 West Bound Driving Lane No Report - - - - - - 80 / 158.4 9/30/2014 9:28:56 AM
8-Huron County Garage (200007) Status Air Temp Sfc Temp Sub Temp Dew Temp Wind Precip Traffic Updated
Sensor [A]: Atmospheric - 57.0 - - 56.5 8.1 / NW - - 9/30/2014 9:40:42 AM
Sensor [0]: US250 NB Lane Wet - 60.1 - - - - 7 / 49.1 9/30/2014 9:40:42 AM
Sensor [1]: US250 SB Lane Wet - 61.7 - - - - 7 / 34.8 9/30/2014 9:40:42 AM
9-I77 MM 109 @ Belden Village (200008) Status Air Temp Sfc Temp Sub Temp Dew Temp Wind Precip Traffic Updated
Sensor [A]: Atmospheric - 57.2 - - - 3.7 / E Rain / 0.3 - 9/30/2014 9:42:23 AM
Sensor [0]: Ramp Bridge over I-77 Dry - 66.2 - - - - 0 / 9.9 9/30/2014 9:42:23 AM
10-SR5@SR45 (200009) Status Air Temp Sfc Temp Sub Temp Dew Temp Wind Precip Traffic Updated
Sensor [A]: Atmospheric - 56.3 - - 53.4 5.0 / N - - 9/30/2014 9:40:28 AM
Sensor [0]: EB Driving Trace Moisture - 59.9 69.8 - - - - 9/30/2014 9:40:28 AM
Sensor [1]: SR5 EB Passing Wet - 59.9 - - - - - 9/30/2014 9:40:28 AM
Sensor [2]: SR5 WB Passing Bridgedeck Wet - 58.1 - - - - - 9/30/2014 9:40:28 AM
11-SR36@SR206 (200010) Status Air Temp Sfc Temp Sub Temp Dew Temp Wind Precip Traffic Updated
Sensor [A]: Atmospheric - 56.7 - - 54.3 2.5 / NW Rain / 0.0 - 9/30/2014 9:41:24 AM
Sensor [0]: US36 EB Wet - 61.7 - - - - - 9/30/2014 9:41:24 AM
12- US 33 @ MM 11.5 (200011) Status Air Temp Sfc Temp Sub Temp Dew Temp Wind Precip Traffic Updated
Sensor [A]: Atmospheric - 63.1 - - 55.2 1.2 / NW - - 9/30/2014 9:41:52 AM
Sensor [0]: US33 EB Driving Dry - 66.7 72.1 - - - - 9/30/2014 9:41:52 AM
Sensor [1]: US33 WB Driving Lane Bridgedeck Dry - 63.9 - - - - - 9/30/2014 9:41:52 AM
13-Knox County Garage (200012) Status Air Temp Sfc Temp Sub Temp Dew Temp Wind Precip Traffic Updated
Sensor [A]: Atmospheric - 54.1 - - 53.2 - - - 9/30/2014 9:42:24 AM
Sensor [1]: SR-3 SB Driving Dry - 58.3 - - - - 24 / 39.1 9/30/2014 9:42:24 AM
14-SR13@CR26N/Sheridan Rd (200013) Status Air Temp Sfc Temp Sub Temp Dew Temp Wind Precip Traffic Updated
Sensor [A]: Atmospheric - 63.3 - - 53.6 0.6 / W - - 9/30/2014 9:42:27 AM
Sensor [0]: SR13 Eastbound Dry - 74.3 - - - - - 9/30/2014 9:42:27 AM
15-US35 @ SR62 (200014) Status Air Temp Sfc Temp Sub Temp Dew Temp Wind Precip Traffic Updated
Sensor [A]: Atmospheric - 78.8 - - 76.3 6.8 / NE - - 9/26/2014 6:22:59 PM
Sensor [0]: US35 EB Driving Dry - 88.7 74.3 - - - - 9/26/2014 6:22:59 PM
Sensor [1]: US35 WB Driving Dry - 88.7 - - - - - 9/26/2014 6:22:59 PM
Sensor [2]: SR62 NB Bridgedeck Dry - 88.7 - - - - - 9/26/2014 6:22:59 PM
Sensor [3]: SR62 NB Bridgedeck Dry - 91.4 - - - - - 9/26/2014 6:22:59 PM
16-SR-752 @ 1.3 Pickaway County (200015) Status Air Temp Sfc Temp Sub Temp Dew Temp Wind Precip Traffic Updated
Sensor [A]: Atmospheric - 60.6 - - 52.3 - - - 9/30/2014 9:40:47 AM
17-US23 @ E. Fairground Road Overpass (200016) Status Air Temp Sfc Temp Sub Temp Dew Temp Wind Precip Traffic Updated
Sensor [A]: Atmospheric - 57.7 - - 57.2 3.1 / E Rain / 0.0 - 9/30/2014 9:40:04 AM
Sensor [0]: US23 NorthBound Passing Approach Trace Moisture - 62.1 - - - - - 9/30/2014 9:40:04 AM
Sensor [1]: US23 SouthBound Passing Bridgedeck No Report - - - - - - 34 / 57.2 9/30/2014 9:40:04 AM
18-US33 @ SR739 (200017) Status Air Temp Sfc Temp Sub Temp Dew Temp Wind Precip Traffic Updated
Sensor [A]: Atmospheric - 61.0 - - 65.8 5.0 / NE - - 9/30/2014 9:41:04 AM
Sensor [1]: US33 EB Driving Dry - 67.1 - - - - - 9/30/2014 9:41:04 AM
Sensor [2]: US33 EB Passing Dry - 67.1 - - - - - 9/30/2014 9:41:04 AM
Sensor [3]: US33 WB Passing Dry - 67.1 - - - - - 9/30/2014 9:41:04 AM
Sensor [4]: US33 WB Driving Dry - 68.0 - - - - - 9/30/2014 9:41:04 AM
Sensor [5]: SR739 NB Bridgedeck Dry - 66.2 - - - - - 9/30/2014 9:41:04 AM
19-US68 @ SLM 1.4 (200018) Status Air Temp Sfc Temp Sub Temp Dew Temp Wind Precip Traffic Updated
Sensor [A]: Atmospheric - 58.6 - - 55.8 3.1 / NE - - 9/30/2014 9:43:06 AM
Sensor [0]: US68 SB Driving Lane Dry - 65.8 64.2 - - - - 9/30/2014 9:43:06 AM
Sensor [1]: US68 NB Driving Lane No Report - - - - - - - 9/30/2014 9:43:06 AM
Sensor [2]: US68 NB Driving Lane Bridgedeck Dry - 65.8 - - - - - 9/30/2014 9:43:06 AM
20-SR502 @ SLM 0.5 (200019) Status Air Temp Sfc Temp Sub Temp Dew Temp Wind Precip Traffic Updated
Sensor [A]: Atmospheric - 58.6 - - 61.7 5.0 / S - - 9/30/2014 9:42:44 AM
Sensor [0]: SR502 EB Lane Dry - 68.0 77.0 - - - 0 / 9.9 9/30/2014 9:42:44 AM
21-US33 @ SR540 (200020) Status Air Temp Sfc Temp Sub Temp Dew Temp Wind Precip Traffic Updated
Sensor [A]: Atmospheric - 58.1 - - 55.9 1.2 / W - - 9/30/2014 9:23:54 AM
Sensor [0]: US-33 East Bound Driving Lane Dry - 68.0 75.2 - - - 3 / 55.9 9/30/2014 9:23:54 AM
Sensor [1]: US-33 West Bound Passing Lane Wet - 66.2 - - - - 0 / 52.2 9/30/2014 9:23:54 AM
22-SR29 @ SLM 0.8 (200021) Status Air Temp Sfc Temp Sub Temp Dew Temp Wind Precip Traffic Updated
Sensor [A]: Atmospheric - 57.9 - - 50.0 - - - 9/18/2014 9:22:00 AM
Sensor [0]: SR29 EB Lane Error - - 74.1 - - - 0 / 5.0 9/18/2014 9:22:00 AM
Sensor [1]: SR29 WB Lane Error - - - - - - 1 / 5.0 9/18/2014 9:22:00 AM
23-SR41 @ SR136 Adams County (200022) Status Air Temp Sfc Temp Sub Temp Dew Temp Wind Precip Traffic Updated
Sensor [A]: Atmospheric - 61.7 - - 57.2 - - - 9/30/2014 9:44:09 AM
Sensor [0]: SR136 NB Lane Dry - 66.2 73.4 - - - - 9/30/2014 9:44:09 AM
Sensor [1]: SR136 SB Lane Dry - 67.1 - - - - - 9/30/2014 9:44:09 AM
24-US68@SR125 (200023) Status Air Temp Sfc Temp Sub Temp Dew Temp Wind Precip Traffic Updated
Sensor [A]: Atmospheric - 66.9 - - 8.8 0.6 / N - - 9/30/2014 9:31:15 AM
Sensor [0]: NB US68 Dry - 77.9 - - - - - 9/30/2014 9:31:15 AM
Sensor [1]: SB US68 Dry - 73.4 - - - - - 9/30/2014 9:31:15 AM
25-Highland County Garage (200024) Status Air Temp Sfc Temp Sub Temp Dew Temp Wind Precip Traffic Updated
Sensor [A]: Atmospheric - 65.8 - - 52.7 1.2 / W - - 9/30/2014 9:43:29 AM
26-SR32 @ US35 (200025) Status Air Temp Sfc Temp Sub Temp Dew Temp Wind Precip Traffic Updated
Sensor [A]: Atmospheric - 58.5 - - 53.1 - - - 9/30/2014 9:43:30 AM
Sensor [0]: US 35 WB Driving Lane Dry - 71.6 - - - - 17 / 55.9 9/30/2014 9:43:30 AM
Sensor [1]: US 35 EB Driving Lane Dry - 71.6 - - - - 26 / 57.8 9/30/2014 9:43:30 AM
Sensor [2]: SR32 Eastbound Driving Lane Bridgedeck Dry - 75.2 - - - - 13 / 57.2 9/30/2014 9:43:30 AM
Sensor [3]: SR32 Westbound Passing Lane Approach Dry - 71.6 - - - - 0 / 65.2 9/30/2014 9:43:30 AM
27-US52 @ Ice Creek (200026) Status Air Temp Sfc Temp Sub Temp Dew Temp Wind Precip Traffic Updated
Sensor [A]: Atmospheric - 60.3 - - 58.8 0.6 / SE - - 9/30/2014 9:42:20 AM
Sensor [0]: SR52 East Bound Driving Lane Dry - 73.4 71.4 - - - 42 / 55.9 9/30/2014 9:42:20 AM
Sensor [1]: SR52 East Bound Passing Lane Dry - 73.4 - - - - 7 / 55.9 9/30/2014 9:42:20 AM
Sensor [2]: SR52 West Bound Passing Lane Dry - 76.1 - - - - 13 / 50.3 9/30/2014 9:42:20 AM
28-US23 @ SLM 6.5 (200027) Status Air Temp Sfc Temp Sub Temp Dew Temp Wind Precip Traffic Updated
Sensor [A]: Atmospheric - 56.1 - - 53.4 / Unknown - - 9/30/2014 9:29:22 AM
Sensor [0]: US23 NB Driving Dry - 67.5 76.5 - - - - 9/30/2014 9:29:22 AM
Sensor [1]: US23 SB Driving Dry - 67.6 - - - - - 9/30/2014 9:29:22 AM
29-US35 @ MM 14.76 (200028) Status Air Temp Sfc Temp Sub Temp Dew Temp Wind Precip Traffic Updated
Sensor [A]: Atmospheric - 45.0 - - 28.4 - - - 9/8/2014 2:47:00 PM
Sensor [0]: SR35 EB Driving Dry - 114.8 - - - - 35 / 62.8 9/8/2014 2:47:00 PM
Sensor [1]: SR35 WB Passing Error - - - - - - 0 / 47.2 9/8/2014 2:47:00 PM
Sensor [2]: SR35 WB Driving Dry - 68.0 - - - - 1 / 52.2 9/8/2014 2:47:00 PM
Sensor [3]: Bridge Deck Simulator Error - - 50.4 - - - 0 / 55.9 9/8/2014 2:47:00 PM
30-US23 @ SLM 9.2 (200029) Status Air Temp Sfc Temp Sub Temp Dew Temp Wind Precip Traffic Updated
Sensor [A]: Atmospheric - 82.2 - - 49.3 1.2 / SE - - 9/25/2014 4:41:27 PM
Sensor [0]: US23 NB Passing Dry - 113.0 - - - - 41 / 42.9 9/25/2014 4:41:27 PM
Sensor [1]: US23 SB Passing Dry - 109.4 - - - - 14 / 57.8 9/25/2014 4:41:27 PM
31-USR 50 MM 17.68 (200030) Status Air Temp Sfc Temp Sub Temp Dew Temp Wind Precip Traffic Updated
Sensor [A]: Atmospheric - 58.6 - - 53.8 - - - 9/30/2014 9:30:42 AM
Sensor [0]: US50 Eastbound Driving Dry - 71.6 - - - - - 9/30/2014 9:30:42 AM
32-USR 35 @ SR 160 (200031) Status Air Temp Sfc Temp Sub Temp Dew Temp Wind Precip Traffic Updated
Sensor [A]: Atmospheric - 62.2 - - 55.8 - - - 9/30/2014 9:40:50 AM
Sensor [0]: SR35 NB Driving Dry - 71.6 - - - - - 9/30/2014 9:40:50 AM
Sensor [1]: SR35 SB Driving Dry - 66.2 - - - - - 9/30/2014 9:40:50 AM
33-US33@mm9.2 (200032) Status Air Temp Sfc Temp Sub Temp Dew Temp Wind Precip Traffic Updated
Sensor [A]: Atmospheric - 55.9 - - 52.2 0.6 / S - - 9/30/2014 9:42:29 AM
Sensor [0]: US33 EB Driving Dry - 67.1 - - - - - 9/30/2014 9:42:29 AM
34-US33 @ OH7 (200033) Status Air Temp Sfc Temp Sub Temp Dew Temp Wind Precip Traffic Updated
Sensor [A]: Atmospheric - 59.9 - - 59.0 0.6 / W - - 9/30/2014 9:44:00 AM
Sensor [0]: US-33 EB Driving Departure Dry - 81.5 69.8 - - - - 9/30/2014 9:44:00 AM
Sensor [1]: US-33 EB Passing Bridgedeck Dry - 76.1 - - - - - 9/30/2014 9:44:00 AM
Sensor [2]: US-33 WB Passing Bridgedeck Dry - 77.9 - - - - - 9/30/2014 9:44:00 AM
Sensor [3]: US-33 WB Driving Approach Dry - 59.0 - - - - - 9/30/2014 7:34:23 AM
35-SR7 @ SLM12.7 (200034) Status Air Temp Sfc Temp Sub Temp Dew Temp Wind Precip Traffic Updated
Sensor [A]: Atmospheric - 59.4 - - 59.2 0.6 / S - - 9/30/2014 9:43:59 AM
Sensor [0]: SR7 NB Driving Lane Dry - 73.4 78.8 - - - - 9/30/2014 9:43:59 AM
Sensor [1]: SR7 SB Driving Lane Dry - 71.6 - - - - - 9/30/2014 9:43:59 AM
36-SR60 @ Monestary Rd (200035) Status Air Temp Sfc Temp Sub Temp Dew Temp Wind Precip Traffic Updated
Sensor [A]: Atmospheric - 66.6 - - 53.8 2.5 / W - - 9/30/2014 9:43:57 AM
Sensor [0]: SR60 EB Lane Dry - 80.6 76.1 - - - - 9/30/2014 9:43:57 AM
Sensor [1]: SR60 WB Lane Dry - 78.8 - - - - - 9/30/2014 9:43:57 AM
37-SR32@SR160 (200036) Status Air Temp Sfc Temp Sub Temp Dew Temp Wind Precip Traffic Updated
Sensor [A]: Atmospheric - 59.9 - - 52.9 0.6 / NE - - 9/30/2014 9:42:31 AM
Sensor [0]: SR32 WB Passing Bridgedeck Dry - 69.6 - - - - - 9/30/2014 9:42:31 AM
Sensor [1]: SR32 EB Driving Dry - 68.0 - - - - - 9/30/2014 9:42:31 AM
Sensor [2]: SR32 WB Driving Bridgedeck Dry - 66.2 - - - - - 9/30/2014 9:42:31 AM
38-SR43@SR9 (200037) Status Air Temp Sfc Temp Sub Temp Dew Temp Wind Precip Traffic Updated
Sensor [A]: Atmospheric - 63.0 - - 56.1 5.6 / W - - 9/30/2014 9:40:51 AM
Sensor [0]: SR43 NB Dry - 81.5 - - - - - 9/30/2014 9:40:51 AM
Sensor [1]: SR9 SB Dry - 78.8 - - - - - 9/30/2014 9:40:51 AM
39-SR11@SR267 (200038) Status Air Temp Sfc Temp Sub Temp Dew Temp Wind Precip Traffic Updated
Sensor [A]: Atmospheric - 57.9 - - 54.9 - - - 9/30/2014 9:40:31 AM
Sensor [0]: SR11 NB Driving Dry - 66.2 71.6 - - - - 9/30/2014 9:40:31 AM
Sensor [1]: SR11 SB Driving Dry - 68.0 - - - - - 9/30/2014 9:40:31 AM
40-Clinton County Garage (200039) Status Air Temp Sfc Temp Sub Temp Dew Temp Wind Precip Traffic Updated
Sensor [A]: Atmospheric - 64.2 - - 55.8 - - - 9/30/2014 9:43:55 AM
41- SR62@SR206 (200042) Status Air Temp Sfc Temp Sub Temp Dew Temp Wind Precip Traffic Updated
Sensor [A]: Atmospheric - 59.7 - - 56.7 - Rain / 0.0 - 9/30/2014 9:40:40 AM
Sensor [0]: SR62 EB Trace Moisture - 61.7 - - - - 7 / 36.0 9/30/2014 9:40:40 AM
Sensor [1]: SR62 WB Wet - 60.8 - - - - 4 / 42.9 9/30/2014 9:40:40 AM
42- SR7@ SLM14.65 (200041) Status Air Temp Sfc Temp Sub Temp Dew Temp Wind Precip Traffic Updated
Sensor [A]: Atmospheric - 59.4 - - 57.7 0.6 / W - - 9/30/2014 9:40:52 AM
Sensor [0]: SR7 Passing Dry - 68.9 73.4 - - - - 9/30/2014 9:40:52 AM
Sensor [1]: SR7 NB Driving Dry - 66.2 - - - - - 9/30/2014 9:40:52 AM
Sensor [2]: SR7 SB Driving Dry - 68.0 - - - - - 9/30/2014 9:40:52 AM
51-I-70 @ 1.0 MM (200050) Status Air Temp Sfc Temp Sub Temp Dew Temp Wind Precip Traffic Updated
Sensor [A]: Atmospheric - 57.2 - - 56.8 - - - 9/30/2014 9:40:50 AM
Sensor [0]: IR70 East Bound Passing Lane Dry - 64.4 61.7 - - - 56 / 62.1 9/30/2014 9:40:50 AM
52-18 MM MOT/PRE (200051) Status Air Temp Sfc Temp Sub Temp Dew Temp Wind Precip Traffic Updated
Sensor [A]: Atmospheric - 56.5 - - 50.4 - - - 9/30/2014 9:40:51 AM
Sensor [0]: IR70 WB Passing Dry - 65.3 - - - - 56 / 57.8 9/30/2014 9:40:51 AM
Sensor [1]: IR70 EB Driving Dry - 66.2 - - - - 0 / 62.1 9/30/2014 9:40:51 AM
Sensor [2]: IR70 WB Driving Dry - 66.2 73.4 - - - 26 / 62.8 9/30/2014 9:40:51 AM
53-CLA-70 @ I675 ***Under Construction*** (200052) Status Air Temp Sfc Temp Sub Temp Dew Temp Wind Precip Traffic Updated
Sensor [A]: Atmospheric - 60.6 - - 54.9 7.5 / NW - - 9/30/2014 9:40:44 AM
54-IR70 MM 62 (200053) Status Air Temp Sfc Temp Sub Temp Dew Temp Wind Precip Traffic Updated
Sensor [A]: Atmospheric - 61.9 - - 54.5 1.9 / NE - - 9/30/2014 9:42:46 AM
55-IR70 MM 142 (200054) Status Air Temp Sfc Temp Sub Temp Dew Temp Wind Precip Traffic Updated
Sensor [A]: Atmospheric - 61.0 - - 55.2 3.1 / W - - 9/30/2014 9:40:53 AM
Sensor [0]: IR70 WB Passing Dry - 68.9 69.8 - - - 48 / 64.0 9/30/2014 9:40:53 AM
Sensor [1]: IR70 EB Driving Dry - 66.2 - - - - 35 / 39.8 9/30/2014 9:40:53 AM
Sensor [2]: IR70 WB Driving Dry - 66.2 - - - - 25 / 44.1 9/30/2014 9:40:53 AM
56-IR70 MM 169 (200055) Status Air Temp Sfc Temp Sub Temp Dew Temp Wind Precip Traffic Updated
Sensor [A]: Atmospheric - 66.7 - - 46.0 2.5 / E - - 9/23/2014 6:40:40 PM
Sensor [0]: IR70 EB Driving Dry - 78.8 69.8 - - - 4 / 18.0 9/23/2014 6:40:40 PM
57-IR70 MM 198 (200056) Status Air Temp Sfc Temp Sub Temp Dew Temp Wind Precip Traffic Updated
Sensor [A]: Atmospheric - 62.6 - - 56.1 1.9 / S - - 9/30/2014 9:41:12 AM
Sensor [0]: IR70 EB Driving Dry - 71.6 - - - - 40 / 57.2 9/30/2014 9:41:12 AM
Sensor [1]: IR70 EB Passing Dry - 73.4 - - - - 1 / 26.7 9/30/2014 9:41:12 AM
Sensor [2]: IR70 WB Passing Dry - 74.3 - - - - 20 / 57.8 9/30/2014 9:41:12 AM
58-IR470 MM 6 (200057) Status Air Temp Sfc Temp Sub Temp Dew Temp Wind Precip Traffic Updated
Sensor [A]: Atmospheric - 61.0 - - 58.8 - - - 9/30/2014 9:30:55 AM
Sensor [0]: IR470 EB Driving Dry - 68.0 - - - - 30 / 44.1 9/30/2014 9:30:55 AM
Sensor [1]: IR470 WB Driving Dry - 68.0 - - - - 10 / 64.0 9/30/2014 9:30:55 AM
59- US 127 @ SR 744 (200058) Status Air Temp Sfc Temp Sub Temp Dew Temp Wind Precip Traffic Updated
Sensor [A]: Atmospheric - 61.5 - - 54.9 5.0 / W - - 9/30/2014 9:41:13 AM
Sensor [0]: US127 NB Bridgedeck Dry - 68.2 - - - - 55 / 64.0 9/30/2014 9:41:13 AM
Sensor [1]: US127 SB Bridgedeck Dry - 67.5 - - - - 31 / 70.8 9/30/2014 9:41:13 AM
60-IR71 MM 62 (200059) Status Air Temp Sfc Temp Sub Temp Dew Temp Wind Precip Traffic Updated
Sensor [A]: Atmospheric - 66.9 - - 51.1 3.7 / SW - - 9/30/2014 9:41:59 AM
Sensor [1]: IR71 NB Passing Bridgedeck Dry - 74.3 - - - - 2 / 65.2 9/30/2014 9:41:59 AM
Sensor [2]: IR71 SB Passing Dry - 76.1 - - - - 2 / 65.2 9/30/2014 9:41:59 AM
Sensor [3]: IR71 SB Center Dry - 76.1 - - - - 36 / 41.0 9/30/2014 9:41:59 AM
Sensor [4]: IR71 NB Driving Dry - 71.6 - - - - 0 / 9.9 9/30/2014 9:41:59 AM
61-IR71 MM 79 (200060) Status Air Temp Sfc Temp Sub Temp Dew Temp Wind Precip Traffic Updated
Sensor [A]: Atmospheric - 65.7 - - 52.9 1.9 / NE - - 9/30/2014 9:42:02 AM
Sensor [0]: IR71 NB Passing Dry - 71.6 68.9 - - - 47 / 65.2 9/30/2014 9:42:02 AM
Sensor [1]: IR71 SB Driving Trace Moisture - 70.7 - - - - 52 / 60.3 9/30/2014 9:42:02 AM
Sensor [2]: IR71 NB Driving Dry - 69.8 - - - - 0 / 9.9 9/30/2014 9:42:02 AM
62- Cemetary Rd. Over I-270 (200061) Status Air Temp Sfc Temp Sub Temp Dew Temp Wind Precip Traffic Updated
Sensor [A]: Atmospheric - 62.4 - - 54.0 0.6 / SE - - 9/30/2014 9:40:35 AM
Sensor [0]: I270 NB Driving Dry - 71.6 75.9 - - - 25 / 34.2 9/30/2014 9:40:35 AM
Sensor [2]: Cemetary Rd WB Passing Dry - 71.6 - - - - 0 / 59.0 9/30/2014 9:40:35 AM
63-I71 MM 144 ***Under Construction*** (200062) Status Air Temp Sfc Temp Sub Temp Dew Temp Wind Precip Traffic Updated
Sensor [A]: Atmospheric - 60.3 - - 47.3 6.2 / E - - 4/9/2013 9:12:09 AM
Sensor [0]: I71 NB Driving (Deck) Dry - 68.9 46.9 - - - 46 / 55.9 4/9/2013 9:12:09 AM
Sensor [1]: I71 NB Passing (Approach) Dry - 60.1 - - - - 0 / 5.0 4/9/2013 9:12:09 AM
Sensor [3]: I71 SB Driving (Departure) Dry - 63.3 - - - - 0 / 65.2 4/9/2013 9:12:09 AM
64-I71 MM 158 (200063) Status Air Temp Sfc Temp Sub Temp Dew Temp Wind Precip Traffic Updated
Sensor [A]: Atmospheric - 57.6 - - 55.9 1.2 / W Rain / 0.0 - 9/30/2014 9:42:32 AM
Sensor [0]: I71 NB Driving Lane Trace Moisture - 62.6 73.4 - - - 0 / 9.9 9/30/2014 9:42:32 AM
Sensor [1]: I71 NB Center Lane Dry - 60.8 - - - - 0 / 9.9 9/30/2014 9:42:32 AM
65-IR71 MM 174 (200064) Status Air Temp Sfc Temp Sub Temp Dew Temp Wind Precip Traffic Updated
Sensor [A]: Atmospheric - 55.8 - - 54.5 3.1 / S - - 9/30/2014 9:42:36 AM
Sensor [0]: IR71 NB Driving Wet - 60.8 60.8 - - - 20 / 59.0 9/30/2014 9:42:36 AM
Sensor [1]: IR71 NB Center Dry - 60.1 - - - - 59 / 59.0 9/30/2014 9:42:36 AM
Sensor [2]: IR71 SB Center Wet - 59.9 - - - - 45 / 60.3 9/30/2014 9:42:36 AM
66-IR71 MM 195.55 (200065) Status Air Temp Sfc Temp Sub Temp Dew Temp Wind Precip Traffic Updated
Sensor [A]: Atmospheric - 57.4 - - 55.8 1.9 / SW - - 9/30/2014 9:40:37 AM
Sensor [0]: IR71 North Bound Driving Lane Trace Moisture - 60.8 69.8 - - - 4 / 55.3 9/30/2014 9:40:37 AM
Sensor [1]: IR71 South Bound Passing Lane Wet - 60.8 - - - - 0 / 54.1 9/30/2014 9:40:37 AM
Sensor [2]: IR71 South Bound Driving Lane Dry - 60.8 - - - - 0 / 21.7 9/30/2014 9:40:37 AM
67-IR71 MM 209 (200066) Status Air Temp Sfc Temp Sub Temp Dew Temp Wind Precip Traffic Updated
Sensor [A]: Atmospheric - 56.5 - - 54.5 1.9 / N Rain / 0.0 - 9/30/2014 9:42:39 AM
Sensor [0]: IR71 NB Driving Dry - 60.8 71.6 - - - 0 / 9.9 9/30/2014 9:42:39 AM
Sensor [1]: IR71 SB Driving Bridgedeck Trace Moisture - 60.8 - - - - 0 / 9.9 9/30/2014 9:42:39 AM
68-IR271 @ IR77 (200067) Status Air Temp Sfc Temp Sub Temp Dew Temp Wind Precip Traffic Updated
Sensor [A]: Atmospheric - 58.5 - - 56.5 3.7 / SW Rain / 0.0 - 9/30/2014 9:42:41 AM
Sensor [0]: I271 SB Passing Bridgedeck Wet - 60.8 - - - - 20 / 55.3 9/30/2014 9:42:41 AM
69-IR275 MM 21 (200068) Status Air Temp Sfc Temp Sub Temp Dew Temp Wind Precip Traffic Updated
Sensor [A]: Atmospheric - 60.3 - - 53.2 1.2 / SW - - 9/30/2014 9:42:03 AM
Sensor [0]: I275 MM21 NB Driving Dry - 70.7 71.1 - - - 39 / 60.3 9/30/2014 9:42:03 AM
Sensor [2]: I275 MM21 SB Driving Dry - 97.7 - - - - 41 / 62.8 9/19/2014 12:02:05 PM
70-IR275 HAM/CLER (200069) Status Air Temp Sfc Temp Sub Temp Dew Temp Wind Precip Traffic Updated
Sensor [A]: Atmospheric - 60.8 - - 55.2 1.9 / NE - - 9/30/2014 9:40:08 AM
Sensor [0]: I275 EB Driving Dry - 68.0 73.4 - - - 0 / 62.1 9/30/2014 9:40:08 AM
Sensor [1]: I275 WB Driving Dry - 64.4 - - - - 0 / 60.9 9/30/2014 9:40:08 AM
71-I675 MONT/GRE (200070) Status Air Temp Sfc Temp Sub Temp Dew Temp Wind Precip Traffic Updated
Sensor [A]: Atmospheric - 64.0 - - 52.5 3.7 / W - - 9/30/2014 9:41:19 AM
Sensor [0]: I675 NB Center Dry - - - - - - 46 / 60.9 9/30/2014 9:41:19 AM
Sensor [1]: I675 SB Passing Dry - 70.7 - - - - 97 / 62.8 9/30/2014 9:41:19 AM
72-18 MM BUT/HAM (200071) Status Air Temp Sfc Temp Sub Temp Dew Temp Wind Precip Traffic Updated
Sensor [A]: Atmospheric - 65.1 - - 53.2 1.2 / NE - - 9/30/2014 9:41:14 AM
Sensor [0]: IR75 NB Passing Dry - 72.5 77.0 - - - - 9/30/2014 9:41:14 AM
Sensor [1]: IR75 SB Driving Dry - 73.4 - - - - - 9/30/2014 9:41:14 AM
73-I75mm27.5 SB (200072) Status Air Temp Sfc Temp Sub Temp Dew Temp Wind Precip Traffic Updated
Sensor [A]: Atmospheric - 64.8 - - 51.6 1.2 / W - - 9/30/2014 9:41:02 AM
Sensor [0]: IR75 NB Driving Dry - 71.6 - - - - - 9/30/2014 9:41:02 AM
Sensor [1]: IR75 SB Driving Dry - 71.6 - - - - - 9/30/2014 9:41:02 AM
74-IR75 MM 40 (200073) Status Air Temp Sfc Temp Sub Temp Dew Temp Wind Precip Traffic Updated
Sensor [A]: Atmospheric - 62.4 - - 53.6 4.3 / NE - - 9/30/2014 9:41:21 AM
Sensor [0]: IR75 NB Driving Dry - 71.6 75.2 - - - 26 / 14.3 9/30/2014 9:41:21 AM
Sensor [1]: IR75 SB Driving Dry - 71.6 - - - - 9 / 19.3 9/30/2014 9:41:21 AM
75-SR16@COS/MUS (200074) Status Air Temp Sfc Temp Sub Temp Dew Temp Wind Precip Traffic Updated
Sensor [A]: Atmospheric - 56.7 - - 52.7 - - - 9/30/2014 9:41:00 AM
Sensor [0]: SR16 EB Driving Bridgedeck Dry - 64.4 58.1 - - - - 9/30/2014 9:41:00 AM
76-IR75 MM 84 (200075) Status Air Temp Sfc Temp Sub Temp Dew Temp Wind Precip Traffic Updated
Sensor [A]: Atmospheric - 59.2 - - 59.9 0.6 / E Rain / 0.0 - 9/30/2014 9:42:35 AM
Sensor [0]: IR75 North Bound Driving Lane Wet - 61.7 77.9 - - - 41 / 47.8 9/30/2014 9:42:35 AM
Sensor [1]: IR75 North Bound Passing Lane Wet - 61.7 - - - - 11 / 44.1 9/30/2014 9:42:35 AM
77-IR75 MM 105 (200076) Status Air Temp Sfc Temp Sub Temp Dew Temp Wind Precip Traffic Updated
Sensor [A]: Atmospheric - 59.0 - - 59.5 - - - 9/30/2014 9:41:44 AM
Sensor [0]: IR75 NB Driving Dry - 64.4 63.7 - - - 0 / 9.9 9/30/2014 9:41:44 AM
Sensor [1]: IR75 SB Driving Dry - 64.4 - - - - 0 / 9.9 9/30/2014 9:41:44 AM
78-IR75 MM 119 (200077) Status Air Temp Sfc Temp Sub Temp Dew Temp Wind Precip Traffic Updated
Sensor [A]: Atmospheric - 56.1 - - 55.4 6.8 / N - - 9/30/2014 9:41:46 AM
Sensor [0]: IR75 NB Driving Trace Moisture - 64.4 64.2 - - - 1 / 9.9 9/30/2014 9:41:46 AM
Sensor [1]: IR75 SB Driving Dry - 64.4 - - - - 0 / 9.9 9/30/2014 9:41:46 AM
79-IR75 MM 141 (200078) Status Air Temp Sfc Temp Sub Temp Dew Temp Wind Precip Traffic Updated
Sensor [A]: Atmospheric - 53.6 - - 52.0 2.5 / NW - - 9/30/2014 9:43:25 AM
Sensor [0]: IR75 NB Driving Dry - 60.8 73.4 - - - 0 / 9.9 9/30/2014 9:43:25 AM
Sensor [1]: IR75 SB Driving Dry - 60.8 - - - - 0 / 9.9 9/30/2014 9:43:25 AM
80-IR77 MM 0 (200079) Status Air Temp Sfc Temp Sub Temp Dew Temp Wind Precip Traffic Updated
Sensor [A]: Atmospheric - 58.3 - - 58.1 0.6 / E - - 9/30/2014 9:42:31 AM
Sensor [0]: I77 SB Driving Lane Dry - 66.4 - - - - - 9/30/2014 9:42:31 AM
81-IR77 MM 16 (200080) Status Air Temp Sfc Temp Sub Temp Dew Temp Wind Precip Traffic Updated
Sensor [A]: Atmospheric - 55.4 - - 54.9 3.7 / S - - 9/30/2014 10:42:23 AM
Sensor [0]: IR77 SB Driving Dry - 65.8 - - - - - 9/30/2014 10:42:23 AM
82-IR77 MM 36 (200081) Status Air Temp Sfc Temp Sub Temp Dew Temp Wind Precip Traffic Updated
Sensor [A]: Atmospheric - 56.8 - - 54.3 1.2 / SE - - 9/30/2014 9:29:55 AM
Sensor [0]: IR77 SB Driving Trace Moisture - 64.9 70.5 - - - 27 / 64.0 9/30/2014 9:29:55 AM
Sensor [1]: IR77 NB Driving Dry - 59.2 - - - - 0 / 52.8 9/30/2014 9:29:55 AM
83-IR77 MM 59 (200082) Status Air Temp Sfc Temp Sub Temp Dew Temp Wind Precip Traffic Updated
Sensor [A]: Atmospheric - 59.9 - - 53.8 1.9 / SW - - 9/30/2014 9:44:02 AM
Sensor [0]: IR77 NB Driving Dry - 64.4 71.6 - - - 0 / 5.0 9/30/2014 9:44:02 AM
Sensor [1]: IR77 SB Driving Dry - 68.0 - - - - 0 / 5.0 9/30/2014 9:44:02 AM
84-IR77 MM 93 UNDER CONSTRUCTION (200083) Status Air Temp Sfc Temp Sub Temp Dew Temp Wind Precip Traffic Updated
Sensor [A]: Atmospheric - 54.9 - - 54.7 1.9 / W - - 9/30/2014 9:31:33 AM
Sensor [0]: IR77 North Bound Driving Lane No Report - - - - - - 0 / 52.8 9/24/2014 11:16:29 PM
Sensor [1]: IR77 North Bound Passing Lane Error - - - - - - 0 / 6.8 9/22/2014 10:50:39 AM
Sensor [2]: IR77 South Bound Passing Lane Bridge Error - - - - - - 0 / 9.9 9/22/2014 10:50:39 AM
Sensor [3]: IR77 South Bound Driving Lane Bridge Error - - - - - - 64 / 65.2 9/22/2014 10:50:39 AM
85-SR2 @ Huron River (200084) Status Air Temp Sfc Temp Sub Temp Dew Temp Wind Precip Traffic Updated
Sensor [A]: Atmospheric - 59.0 - - 55.6 5.6 / W - - 9/30/2014 9:44:10 AM
Sensor [0]: SR2 WB Passing Wet - - 71.6 - - - 8959 / 154.1 9/30/2014 9:44:10 AM
Sensor [1]: SR2 EB Driving Departure Dry - 62.6 - - - - 1 / 5.0 9/30/2014 9:44:10 AM
86-IR90 @ SR57 (200085) Status Air Temp Sfc Temp Sub Temp Dew Temp Wind Precip Traffic Updated
Sensor [A]: Atmospheric - 61.7 - - 59.0 1.9 / N - - 9/30/2014 9:34:00 AM
Sensor [0]: I-90 East Bound Driving Lane Error - - 32.2 - - - 34 / 6.2 9/30/2014 9:34:00 AM
Sensor [1]: I-90 West Bound Driving Lane Error - - - - - - 0 / 5.0 9/30/2014 9:34:00 AM
87-IR90 ATB/LAKE (200086) Status Air Temp Sfc Temp Sub Temp Dew Temp Wind Precip Traffic Updated
Sensor [A]: Atmospheric - 59.7 - - 57.9 1.9 / S - - 9/30/2014 9:44:12 AM
Sensor [0]: I90 EB Passing Trace Moisture - 62.1 68.0 - - - 92 / 62.1 9/30/2014 9:44:12 AM
Sensor [1]: I90 EB Driving Dry - 62.6 - - - - 2 / 5.0 9/30/2014 9:44:12 AM
Sensor [2]: I90 WB Passing Trace Moisture - 62.6 - - - - 52 / 59.0 9/30/2014 9:44:12 AM
88-IR90 @ SR11 (200087) Status Air Temp Sfc Temp Sub Temp Dew Temp Wind Precip Traffic Updated
Sensor [A]: Atmospheric - 60.1 - - 57.2 1.2 / E Rain / 0.2 - 9/30/2014 9:34:00 AM
Sensor [0]: I-90 East Bound Driving Lane Error - - 32.9 - - - 0 / 158.4 9/30/2014 9:34:00 AM
Sensor [1]: I-90 East Bound Passing Lane Wet - 63.1 - - - - 11 / 64.0 9/30/2014 9:34:00 AM
Sensor [2]: I-90 West Bound Passing Lane Wet - 63.1 - - - - 12 / 54.1 9/30/2014 9:34:00 AM
Sensor [3]: I-90 West Bound Driving Lane Error - - - - - - 55 / 57.2 9/30/2014 9:34:00 AM
Sensor [4]: SR 11 South Bound Bridge over I-90 Error - - - - - - 0 / 16.8 9/30/2014 9:34:00 AM
89-IR90 @ PA Line (200088) Status Air Temp Sfc Temp Sub Temp Dew Temp Wind Precip Traffic Updated
Sensor [A]: Atmospheric - 42.6 - - 35.6 3.1 / S - - 4/12/2012 8:59:00 AM
Sensor [0]: Pavement Sensors Removed for Construction Error - - 48.2 - - - 832 / 57.2 4/12/2012 8:59:00 AM
Sensor [1]: Pavement Sensors Removed for Construction Error - - - - - - 679 / 28.0 4/12/2012 8:59:00 AM
Sensor [2]: Pavement Sensors Removed for Construction Error - - - - - - 727 / 23.0 4/12/2012 8:59:00 AM
Sensor [3]: Pavement Sensors Removed for Construction Error - - - - - - 0 / 16.8 4/12/2012 8:59:00 AM
90-IR80 @ PA Line (200089) Status Air Temp Sfc Temp Sub Temp Dew Temp Wind Precip Traffic Updated
Sensor [A]: Atmospheric - 80.6 - - 59.0 - - - 8/18/2014 12:57:00 PM
Sensor [0]: I-80 East Bound Driving Lane Error - - 54.3 - - - 21 / 49.1 8/18/2014 12:57:00 PM
Sensor [1]: I-80 East Bound Passing Lane Error - - - - - - 0 / 47.8 8/18/2014 12:57:00 PM
Sensor [2]: I-80 West Bound Passing Lane Error - - - - - - 0 / 9.9 8/18/2014 12:57:00 PM
91-IR76 MAH/POR (200090) Status Air Temp Sfc Temp Sub Temp Dew Temp Wind Precip Traffic Updated
Sensor [A]: Atmospheric - 58.6 - - 54.5 3.1 / W - - 9/30/2014 9:44:13 AM
Sensor [0]: IR76 EB Passing Dry - 62.1 - - - - 6 / 9.9 9/30/2014 9:44:13 AM
Sensor [1]: IR76 WB Passing Bridgedeck Dry - 60.1 - - - - 22 / 55.9 9/30/2014 9:44:13 AM
Sensor [2]: IR76 EB Driving Trace Moisture - 64.4 - - - - 17 / 64.0 9/30/2014 9:44:13 AM
92-IR76 POR/SUM (200091) Status Air Temp Sfc Temp Sub Temp Dew Temp Wind Precip Traffic Updated
Sensor [A]: Atmospheric - 55.0 - - 54.0 1.2 / SW Rain / 0.0 - 9/30/2014 9:40:38 AM
Sensor [0]: IR76 EB passing Bridgedeck Wet - 59.9 - - - - 0 / 65.2 9/30/2014 9:40:38 AM
Sensor [2]: IR76 WB Driving Trace Moisture - 62.6 - - - - 0 / 64.0 9/30/2014 9:40:38 AM
94-SR11 ATB/TRUM (200093) Status Air Temp Sfc Temp Sub Temp Dew Temp Wind Precip Traffic Updated
Sensor [A]: Atmospheric - 63.9 - - 62.6 - Rain / 0.0 - 9/30/2014 9:35:00 AM
Sensor [0]: SR11 North Bound Driving Lane Wet - 63.1 61.9 - - - 12 / 62.8 9/30/2014 9:35:00 AM
Sensor [1]: SR11 North Bound Passing Lane Error - - - - - - 2 / 9.9 9/30/2014 9:35:00 AM
Sensor [2]: SR11 South Bound Passing Lane Error - - - - - - 3 / 65.2 9/30/2014 9:35:00 AM
Sensor [3]: SR11 South Bound Driving Lane Wet - 63.1 - - - - 14 / 64.0 9/30/2014 9:35:00 AM
95-SR11 MAH/COL (200094) Status Air Temp Sfc Temp Sub Temp Dew Temp Wind Precip Traffic Updated
Sensor [A]: Atmospheric - 62.8 - - 57.2 0.6 / NW - - 9/30/2014 9:34:00 AM
Sensor [0]: SR11 North Bound Driving Lane Error - - 45.5 - - - 0 / 64.0 9/30/2014 9:34:00 AM
Sensor [2]: SR11 South Bound Passing Lane Error - - - - - - 6 / 60.9 9/30/2014 9:34:00 AM
Sensor [3]: SR11 South Bound Driving Lane Error - - - - - - 0 / 65.2 9/30/2014 9:34:00 AM
97-SR315 @ I270 (200096) Status Air Temp Sfc Temp Sub Temp Dew Temp Wind Precip Traffic Updated
Sensor [A]: Atmospheric - 59.5 - - 57.2 1.2 / NE Rain / 0.0 - 9/30/2014 9:40:06 AM
Sensor [0]: I270 WB Driving Wet - 61.7 - - - - 4 / 26.7 9/30/2014 9:40:06 AM
Sensor [1]: I270 WB Passing Trace Moisture - 64.4 - - - - 0 / 42.3 9/30/2014 9:40:06 AM
98-I270 SB Ramp to SR161 EB (200097) Status Air Temp Sfc Temp Sub Temp Dew Temp Wind Precip Traffic Updated
Sensor [A]: Atmospheric - 59.0 - - 55.2 1.2 / N - - 9/30/2014 9:40:45 AM
Sensor [0]: SR161 WB Passing Bridgedeck Wet - 61.7 - - - - 29 / 60.9 9/30/2014 9:40:45 AM
Sensor [1]: SR161 WB Driving Wet - 62.6 - - - - 0 / 50.3 9/30/2014 9:40:45 AM
Sensor [3]: I270 SB to SR161 EB Flyover Ramp Wet - 62.6 - - - - 106 / 57.8 9/30/2014 9:40:45 AM
99-US30 @ Dalton (200098) Status Air Temp Sfc Temp Sub Temp Dew Temp Wind Precip Traffic Updated
Sensor [A]: Atmospheric - 57.0 - - 55.4 - - - 9/30/2014 9:37:00 AM
Sensor [0]: US30E Driving Lane Error - - 61.3 - - - 0 / 50.3 9/30/2014 9:37:00 AM
Sensor [1]: US30E Passing Lane Wet - 59.0 - - - - 19 / 55.3 9/30/2014 9:37:00 AM
Sensor [2]: US30W Passing Lane - Bridgedeck Wet - 57.7 - - - - 17 / 51.0 9/30/2014 9:37:00 AM
Sensor [3]: US30W Driving Lane - Bridgedeck Error - - - - - - 761 / 62.1 9/30/2014 9:37:00 AM
100-SR225 @ Berlin Reservoir (200099) Status Air Temp Sfc Temp Sub Temp Dew Temp Wind Precip Traffic Updated
Sensor [A]: Atmospheric - 49.8 - - 49.8 0.6 / SW - - 9/27/2014 5:23:50 AM
Sensor [0]: SR225 NB Lane Dry - 59.2 71.6 - - - 0 / 65.2 9/27/2014 5:23:50 AM
Sensor [1]: SR225 SB Bridgedeck No Report - - - - - - 4 / 9.9 9/27/2014 5:23:50 AM
101-SR45 @ Rock Creek (200100) Status Air Temp Sfc Temp Sub Temp Dew Temp Wind Precip Traffic Updated
Sensor [A]: Atmospheric - 57.7 - - 56.3 - Rain / 0.2 - 9/30/2014 9:44:15 AM
102-SR7 @ SR167 East (200101) Status Air Temp Sfc Temp Sub Temp Dew Temp Wind Precip Traffic Updated
Sensor [A]: Atmospheric - 36.1 - - 32.0 3.7 / NE - - 11/26/2013 11:55:00 AM
Sensor [0]: SR7 NB Lane Error - - - - - - 6 / 42.3 11/26/2013 11:55:00 AM
Sensor [1]: SR7 SB Lane - Bridge Error - - - - - - 0 / 5.0 11/26/2013 11:55:00 AM
103- I-70 @ SR-79 (200102) Status Air Temp Sfc Temp Sub Temp Dew Temp Wind Precip Traffic Updated
Sensor [A]: Atmospheric - 60.3 - - 52.9 - - - 9/30/2014 9:41:18 AM
Sensor [0]: SR79 NB Bridgedeck Dry - 71.6 71.6 - - - 83 / 51.0 9/30/2014 9:41:18 AM
Sensor [1]: SR79 SB Bridgedeck Dry - 66.2 - - - - 36 / 50.3 9/30/2014 9:41:18 AM
Sensor [2]: IR70 EB Driving Dry - 68.0 - - - - 32 / 60.3 9/30/2014 9:41:18 AM
104-SR 3 KNOX/Ashland (200103) Status Air Temp Sfc Temp Sub Temp Dew Temp Wind Precip Traffic Updated
Sensor [A]: Atmospheric - 57.4 - - 57.4 3.1 / SW - - 9/30/2014 9:30:44 AM
Sensor [0]: SR3 SB Trace Moisture - 61.2 71.6 - - - 2 / 52.2 9/30/2014 9:30:44 AM
105-IR70/IR75 (200104) Status Air Temp Sfc Temp Sub Temp Dew Temp Wind Precip Traffic Updated
Sensor [A]: Atmospheric - 59.9 - - 46.0 7.5 / W - - 9/30/2014 9:41:15 AM
Sensor [2]: IR70 WB Driving Bridgedeck Dry - 66.2 - - - - 25 / 65.2 9/30/2014 9:41:15 AM
106-SR39 @ Sugarcreek (200105) Status Air Temp Sfc Temp Sub Temp Dew Temp Wind Precip Traffic Updated
Sensor [A]: Atmospheric - 56.7 - - 55.8 1.9 / NW - - 9/30/2014 9:30:16 AM
Sensor [0]: SR39 EB Lane Dry - 64.6 - - - - 6 / 51.0 9/30/2014 9:30:16 AM
Sensor [1]: SR39 WB Lane Dry - 64.6 72.7 - - - 131 / 47.8 9/30/2014 9:30:16 AM
107-US250 @ Ulrichsville (200106) Status Air Temp Sfc Temp Sub Temp Dew Temp Wind Precip Traffic Updated
Sensor [A]: Atmospheric - 57.2 - - - - - - 9/30/2014 9:44:03 AM
Sensor [0]: US250 EB Driving Dry - 69.8 75.2 - - - 0 / 5.0 9/30/2014 9:44:03 AM
Sensor [1]: US250 WB Driving Dry - 69.8 - - - - 0 / 5.0 9/30/2014 9:44:03 AM
108-SR183 @ Minerva (200107) Status Air Temp Sfc Temp Sub Temp Dew Temp Wind Precip Traffic Updated
Sensor [A]: Atmospheric - 57.4 - - 55.9 1.2 / W - - 9/30/2014 9:31:07 AM
Sensor [0]: SR183 NB Bridgedeck Dry - 61.9 71.1 - - - 9 / 70.8 9/30/2014 9:31:07 AM
Sensor [1]: SR183 SB Dry - 63.9 - - - - 4 / 9.9 9/30/2014 9:31:07 AM
109-SR22 @ SR151 (200108) Status Air Temp Sfc Temp Sub Temp Dew Temp Wind Precip Traffic Updated
Sensor [A]: Atmospheric - 63.5 - - 56.7 1.9 / E - - 9/30/2014 9:44:07 AM
Sensor [0]: SR22E Driving Lane Dry - 74.3 58.1 - - - 19 / 67.1 9/30/2014 9:44:07 AM
Sensor [1]: SR22W Passing Lane Dry - 74.3 - - - - 2 / 73.9 9/30/2014 9:44:07 AM
110-SR7 @ SR213 (200109) Status Air Temp Sfc Temp Sub Temp Dew Temp Wind Precip Traffic Updated
Sensor [A]: Atmospheric - 55.2 - - 54.5 0.6 / N - - 9/30/2014 9:31:51 AM
Sensor [0]: SR7 NB Driving Dry - 64.0 72.1 - - - 6 / 42.3 9/30/2014 9:31:51 AM
111-I70 MM 114 (200110) Status Air Temp Sfc Temp Sub Temp Dew Temp Wind Precip Traffic Updated
Sensor [A]: Atmospheric - 62.6 - - 52.3 - - - 9/30/2014 9:40:46 AM
Sensor [0]: IR70 WB Passing Bridgedeck Dry - 73.4 - - - - 86 / 47.8 9/30/2014 9:40:46 AM
112-USR 27 @ 21 MM (200111) Status Air Temp Sfc Temp Sub Temp Dew Temp Wind Precip Traffic Updated
Sensor [A]: Atmospheric - 59.4 - - 54.7 4.3 / N - - 9/30/2014 9:42:06 AM
Sensor [0]: SR27 NB Lane Dry - 73.4 64.4 - - - 6 / 57.8 9/30/2014 9:42:06 AM
Sensor [1]: SR27 SB Lane Dry - 73.4 - - - - 16 / 50.3 9/30/2014 9:42:06 AM
113-I-275 @ USR 52 (200112) Status Air Temp Sfc Temp Sub Temp Dew Temp Wind Precip Traffic Updated
Sensor [A]: Atmospheric - 59.9 - - 55.9 2.5 / W - - 9/30/2014 9:30:13 AM
Sensor [0]: I275 SB Driving Bridgedeck Dry - 71.6 - - - - 28 / 60.3 9/30/2014 9:30:13 AM
114-IR71 @ US36 (38000) Status Air Temp Sfc Temp Sub Temp Dew Temp Wind Precip Traffic Updated
Sensor [A]: Atmospheric - 58.6 - - 53.1 - - - 9/30/2014 9:41:06 AM
Sensor [0]: I71 SB Driving Wet - 60.8 - - - - - 9/30/2014 9:41:06 AM
Sensor [3]: US36 WB Bridge Wet - 61.7 - - - - - 9/30/2014 9:41:06 AM
115-IR71 @ Schrock Road (38001) Status Air Temp Sfc Temp Sub Temp Dew Temp Wind Precip Traffic Updated
Sensor [A]: Atmospheric - 65.1 - - 65.1 0.6 / SE - - 9/30/2014 9:41:07 AM
Sensor [0]: Schrock Rd Approach Wet - 65.5 - - - - - 9/30/2014 9:41:07 AM
Sensor [1]: Schrock Rd Bridgedeck Wet - 63.9 - - - - - 9/30/2014 9:41:07 AM
116-IR70W @ I270 (38004) Status Air Temp Sfc Temp Sub Temp Dew Temp Wind Precip Traffic Updated
Sensor [A]: Atmospheric - - - - - 1.2 / NE - - 9/30/2014 9:41:09 AM
Sensor [0]: I-70 EB Drive Error - - - - - - - 9/30/2014 9:41:09 AM
117-IR70 @ SR29 (38005) Status Air Temp Sfc Temp Sub Temp Dew Temp Wind Precip Traffic Updated
Sensor [A]: Atmospheric - 64.0 - - 50.5 0.6 / W - - 9/30/2014 9:41:16 AM
Sensor [0]: SR29 NB Bridgedeck Dry - 68.0 - - - - - 9/30/2014 9:41:16 AM
Sensor [1]: I70 EB Passing Dry - 68.0 - - - - - 9/30/2014 9:41:16 AM
Sensor [2]: I70 WB Driving Dry - 69.6 - - - - - 9/30/2014 9:41:16 AM
118-IR70/IR71/SR315 (38006) Status Air Temp Sfc Temp Sub Temp Dew Temp Wind Precip Traffic Updated
Sensor [A]: Atmospheric - 64.6 - - 50.9 1.2 / E - - 9/30/2014 9:39:20 AM
Sensor [0]: I70 WB to I71 SB Ramp Dry - 68.5 - - - - - 9/30/2014 9:39:20 AM
Sensor [1]: I70 EB to SR315 Ramp Wet - 77.9 - - - - - 9/30/2014 9:39:20 AM
Sensor [3]: I70 WB Driving Dry - 75.2 - - - - - 9/30/2014 9:39:20 AM
119-IR71S @ I270 (38007) Status Air Temp Sfc Temp Sub Temp Dew Temp Wind Precip Traffic Updated
Sensor [A]: Atmospheric - 33.1 - - 23.2 7.5 / N - - 1/20/2014 7:31:46 AM
Sensor [2]: I270 EB Passing Error - - - - - - - 1/20/2014 7:31:46 AM
120-US33 @ Hamilton Road (38010) Status Air Temp Sfc Temp Sub Temp Dew Temp Wind Precip Traffic Updated
Sensor [A]: Atmospheric - 62.4 - - 51.3 1.9 / SW - - 9/30/2014 9:41:41 AM
Sensor [0]: US33 EB Driving Dry - 73.4 - - - - - 9/30/2014 9:41:41 AM
Sensor [1]: US33 EB Passing Dry - 69.8 - - - - - 9/30/2014 9:41:41 AM
121-I-670 Over Airport Connector (38014) Status Air Temp Sfc Temp Sub Temp Dew Temp Wind Precip Traffic Updated
Sensor [A]: Atmospheric - 62.2 - - 49.6 1.2 / S - - 9/30/2014 9:41:43 AM
Sensor [0]: Airport Connector Bridgedeck Dry - 66.7 - - - - - 9/30/2014 9:41:43 AM
Sensor [1]: I670 EB Passing Dry - 67.6 - - - - - 9/30/2014 9:41:43 AM
Sensor [2]: I670 WB Passing Dry - 67.1 - - - - - 9/30/2014 9:41:43 AM
122-Medina Line Rd. Over I-271 (612000) Status Air Temp Sfc Temp Sub Temp Dew Temp Wind Precip Traffic Updated
Sensor [A]: Atmospheric - 58.3 - - 57.0 - Rain / 0.2 - 9/30/2014 9:40:07 AM
Sensor [0]: SB Bridge Wet - 58.6 - - - - - 9/30/2014 9:40:07 AM
Sensor [1]: SB Road Trace Moisture - 59.0 - - - - - 9/30/2014 9:40:07 AM
123-Steels Corner Rd. /Mud Creek (612003) Status Air Temp Sfc Temp Sub Temp Dew Temp Wind Precip Traffic Updated
Sensor [A]: Atmospheric - 58.6 - - 57.9 - Rain / 0.0 - 9/30/2014 9:40:09 AM
Sensor [0]: WB Bridge Wet - 60.6 - - - - - 9/30/2014 9:40:09 AM
Sensor [1]: WB Road Trace Moisture - 60.8 62.6 - - - - 9/30/2014 9:40:09 AM
124-Old Mill Rd. Over I-480 (612004) Status Air Temp Sfc Temp Sub Temp Dew Temp Wind Precip Traffic Updated
Sensor [A]: Atmospheric - 58.3 - - 58.3 1.2 / E Rain / 0.1 - 9/30/2014 9:40:11 AM
125-Ridgewood Rd. Over Rt 21 (612006) Status Air Temp Sfc Temp Sub Temp Dew Temp Wind Precip Traffic Updated
Sensor [A]: Atmospheric - 58.3 - - 57.4 1.9 / SE Rain / 0.0 - 9/30/2014 9:40:13 AM
Sensor [0]: EB Bridge Deck Dry - 60.8 - - - - - 9/30/2014 9:40:13 AM
126-Killian Rd. Over I-77 (612011) Status Air Temp Sfc Temp Sub Temp Dew Temp Wind Precip Traffic Updated
Sensor [A]: Atmospheric - 58.8 - - 56.3 - Rain / 0.2 - 9/30/2014 9:40:15 AM
Sensor [0]: EB Bridge Wet - 60.1 72.7 - - - - 9/30/2014 9:40:15 AM
127-US 6 Williams County (582000) Status Air Temp Sfc Temp Sub Temp Dew Temp Wind Precip Traffic Updated
Sensor [A]: Atmospheric - 50.9 - - 48.9 5.0 / NW - - 9/30/2014 9:40:13 AM
Sensor [0]: US-6 EB Lane Dry - 62.6 - - - - 0 / 47.8 9/30/2014 9:40:13 AM
Sensor [2]: US6 EB Dry - 66.0 72.7 - - - - 9/30/2014 9:40:13 AM
128-US 20 @ SLM 1.5 ***Under Construction*** (582001) Status Air Temp Sfc Temp Sub Temp Dew Temp Wind Precip Traffic Updated
Sensor [A]: Atmospheric - 50.2 - - 46.9 3.1 / N - - 9/30/2014 9:40:16 AM
Sensor [0]: US-20 EB Dry - 61.7 - - - - - 9/30/2014 9:40:16 AM
129-US 20 @ SLM 11.5 (582002) Status Air Temp Sfc Temp Sub Temp Dew Temp Wind Precip Traffic Updated
Sensor [A]: Atmospheric - 52.5 - - 50.2 3.7 / N - - 9/30/2014 9:40:18 AM
Sensor [2]: SR-20A WB Approach Trace Moisture - 60.3 73.0 - - - - 9/30/2014 9:40:18 AM
Sensor [3]: SR-20A WB Deck Trace Moisture - 60.4 - - - - - 9/30/2014 9:40:18 AM
130-US 20A @ SLM 2.5 Fulton (582003) Status Air Temp Sfc Temp Sub Temp Dew Temp Wind Precip Traffic Updated
Sensor [A]: Atmospheric - 51.4 - - -3.3 0.6 / E - - 9/30/2014 9:40:20 AM
Sensor [0]: US-20 EB Deck Dry - 57.9 - - - - - 9/30/2014 9:40:20 AM
Sensor [1]: US-20 EB Approach Dry - 63.5 - - - - - 9/30/2014 9:40:20 AM
131-US 20 @ SLM 9.5 Fulton (582004) Status Air Temp Sfc Temp Sub Temp Dew Temp Wind Precip Traffic Updated
Sensor [A]: Atmospheric - 52.5 - - - - - - 9/30/2014 9:40:22 AM
Sensor [0]: US-20 WB Deck Dry - 60.1 - - - - - 9/30/2014 9:40:22 AM
Sensor [1]: US-20 EB Approach Dry - 63.7 - - - - - 9/30/2014 9:40:22 AM
132-SR 64 @ SLM 6.0 Fulton (582005) Status Air Temp Sfc Temp Sub Temp Dew Temp Wind Precip Traffic Updated
Sensor [A]: Atmospheric - 52.2 - - 51.1 6.2 / NW - - 9/30/2014 9:40:24 AM
133-US 6 @ SLM .5 (582006) Status Air Temp Sfc Temp Sub Temp Dew Temp Wind Precip Traffic Updated
Sensor [A]: Atmospheric - 50.7 - - 50.4 4.3 / N - - 9/30/2014 9:40:26 AM
Sensor [0]: US-6 WB Wet - 59.0 62.8 - - - - 9/30/2014 9:40:26 AM
134-SR 108 @ SLM .5 (582007) Status Air Temp Sfc Temp Sub Temp Dew Temp Wind Precip Traffic Updated
Sensor [A]: Atmospheric - 51.3 - - - 4.3 / N - - 9/30/2014 9:40:08 AM
Sensor [0]: SR-108 NB Wet - 61.7 76.6 - - - - 9/30/2014 9:40:08 AM
135-US Rt 6 @ Maumee River (582008) Status Air Temp Sfc Temp Sub Temp Dew Temp Wind Precip Traffic Updated
Sensor [A]: Atmospheric - 52.0 - - 52.0 9.3 / NE - - 9/30/2014 9:40:12 AM
Sensor [0]: US-6 EB Deck Error - 58.3 - - - - - 9/30/2014 9:40:12 AM
Sensor [1]: US-6 WB Deck Error - - - - - - - 9/30/2014 9:40:12 AM
136-Rt 65 South Henry County (582009) Status Air Temp Sfc Temp Sub Temp Dew Temp Wind Precip Traffic Updated
Sensor [A]: Atmospheric - 51.4 - - 49.8 8.7 / N - - 9/30/2014 9:40:14 AM
Sensor [0]: SR-65 NB Wet - 62.6 - - - - - 9/30/2014 9:40:14 AM
137 - SR 64 @ SLM 7.5 Lucas (582010) Status Air Temp Sfc Temp Sub Temp Dew Temp Wind Precip Traffic Updated
Sensor [A]: Atmospheric - 52.2 - - 52.0 1.2 / N - - 9/30/2014 9:40:15 AM
Sensor [0]: SR-64 EB Approach Dry - 55.8 - - - - - 9/30/2014 9:40:15 AM
Sensor [1]: SR-64 EB @ RPU Error - 60.6 - - - - - 9/30/2014 9:40:15 AM
138-US 24 near Grand Rapids (582011) Status Air Temp Sfc Temp Sub Temp Dew Temp Wind Precip Traffic Updated
Sensor [A]: Atmospheric - 51.6 - - 51.6 5.0 / N - - 9/30/2014 9:40:17 AM
Sensor [0]: SR-578 SB Maumee River Dry - 62.6 75.4 - - - - 9/30/2014 9:40:17 AM
Sensor [1]: SR-578 SB Dry - 64.2 - - - - - 9/30/2014 9:40:17 AM
139-I-80 & I-475 Lucas ***Under Construction*** (582012) Status Air Temp Sfc Temp Sub Temp Dew Temp Wind Precip Traffic Updated
Sensor [A]: Atmospheric - 72.1 - - 71.6 1.9 / SW - - 10/3/2013 12:40:42 PM
Sensor [0]: I-475 NB Deck Dry - 77.0 - - - - - 10/3/2013 12:40:42 PM
Sensor [1]: I-475 SB Approach Error - - - - - - - 10/3/2013 12:40:42 PM
140-IR 475 @ US 23 Split ***Under Construction*** (582013) Status Air Temp Sfc Temp Sub Temp Dew Temp Wind Precip Traffic Updated
Sensor [A]: Atmospheric - 72.3 - - 71.6 3.7 / Unknown - - 9/30/2014 9:40:37 AM
141-IR 75 @ SLM 4.9 475 Split (582014) Status Air Temp Sfc Temp Sub Temp Dew Temp Wind Precip Traffic Updated
Sensor [A]: Atmospheric - 54.0 - - 54.0 2.5 / NW - - 9/30/2014 9:40:10 AM
Sensor [1]: I-75 SB Dry - 65.3 - - - - - 9/30/2014 9:40:10 AM
Sensor [3]: I-475 EB Departure Dry - 63.5 - - - - - 9/30/2014 9:40:10 AM
142 - I-280 @ Veterans Glass City Skyway (VGCS) (582016) Status Air Temp Sfc Temp Sub Temp Dew Temp Wind Precip Traffic Updated
Sensor [A]: Atmospheric - 53.8 - - 49.8 6.8 / NW - - 9/30/2014 9:40:11 AM
Sensor [0]: NB I-280 Driving Lane Dry - 62.1 - - - - 26 / 59.0 9/30/2014 9:40:11 AM
Sensor [1]: NB I-280 Center Lane Dry - 63.3 - - - - 52 / 57.2 9/30/2014 9:40:11 AM
Sensor [4]: SB I-280 Center Lane Dry - 61.5 - - - - 53 / 55.9 9/30/2014 9:40:11 AM
143-SR 2 @ MP 31.8 Lucas (582017) Status Air Temp Sfc Temp Sub Temp Dew Temp Wind Precip Traffic Updated
Sensor [A]: Atmospheric - 54.5 - - 51.6 - - - 9/30/2014 9:40:13 AM
Sensor [0]: SR-2 EB Deck Dry - 62.6 - - - - - 9/30/2014 9:40:13 AM
144-IR 75 & Eagleville Rd. (582018) Status Air Temp Sfc Temp Sub Temp Dew Temp Wind Precip Traffic Updated
Sensor [A]: Atmospheric - 76.6 - - 63.0 4.3 / NE - - 8/18/2014 12:00:17 PM
Sensor [0]: I-75 NB Deck Error - - - - - - - 8/18/2014 12:00:17 PM
Sensor [1]: I-75 SB Deck Error - - - - - - - 8/18/2014 12:00:17 PM
145-IR 75 @ SLM 18.36 Wood (582019) Status Air Temp Sfc Temp Sub Temp Dew Temp Wind Precip Traffic Updated
Sensor [A]: Atmospheric - 80.8 - - 54.1 2.5 / E - - 8/7/2014 1:00:20 PM
Sensor [0]: I-75 NB Approach Error - 112.6 - - - - - 8/7/2014 1:00:20 PM
Sensor [1]: I-75 SB Deck Dry - 108.3 - - - - - 8/7/2014 1:00:20 PM
146-I-75 @ I-475 Wood ***Under Construction*** (582020) Status Air Temp Sfc Temp Sub Temp Dew Temp Wind Precip Traffic Updated
Sensor [A]: Atmospheric - 52.2 - - 31.6 3.7 / NW - - 9/30/2014 9:40:29 AM
147-I-75 @ I-80 Wood County (582021) Status Air Temp Sfc Temp Sub Temp Dew Temp Wind Precip Traffic Updated
Sensor [A]: Atmospheric - 53.6 - - 53.6 1.9 / NW - - 9/30/2014 9:40:32 AM
Sensor [0]: I-75 NB Deck Dry - 61.7 - - - - - 9/30/2014 9:40:32 AM
Sensor [1]: I-75 SB Deck Error - - - - - - - 9/30/2014 9:40:32 AM
148-US-6 @ Rt. 23 (582022) Status Air Temp Sfc Temp Sub Temp Dew Temp Wind Precip Traffic Updated
Sensor [A]: Atmospheric - 53.6 - - 52.9 7.5 / NW - - 9/30/2014 9:40:34 AM
Sensor [0]: US-6 EB Trace Moisture - 64.4 - - - - 0 / 9.9 9/30/2014 9:40:34 AM
Sensor [1]: US-23 NB Wet - 64.4 - - - - 0 / 9.9 9/30/2014 9:40:34 AM
149-US-20 @ Lemoyne Rd. (582023) Status Air Temp Sfc Temp Sub Temp Dew Temp Wind Precip Traffic Updated
Sensor [A]: Atmospheric - 57.6 - - 57.0 3.1 / NW - - 9/30/2014 9:40:37 AM
Sensor [0]: US-20 EB Departure Dry - 60.8 - - - - 23 / 57.8 9/30/2014 9:40:37 AM
150-I-280 @ Libbey Rd. (582024) Status Air Temp Sfc Temp Sub Temp Dew Temp Wind Precip Traffic Updated
Sensor [A]: Atmospheric - 53.4 - - 49.6 5.0 / NW - - 9/30/2014 9:40:39 AM
151-SR 2 @ Portage River Bridge (582025) Status Air Temp Sfc Temp Sub Temp Dew Temp Wind Precip Traffic Updated
Sensor [A]: Atmospheric - 57.2 - - 54.9 5.6 / W Rain / 0.0 - 9/30/2014 9:40:41 AM
Sensor [0]: SR-2 EB Departure Dry - 61.9 73.9 - - - - 9/30/2014 9:40:41 AM
Sensor [1]: SR-2 WB Deck Frost - -28.3 - - - - - 9/30/2014 9:40:41 AM
152-SR-2@28.5 Bay Br. (582026) Status Air Temp Sfc Temp Sub Temp Dew Temp Wind Precip Traffic Updated
Sensor [A]: Atmospheric - 58.8 - - 58.8 8.7 / SW - - 9/30/2014 9:40:42 AM
Sensor [3]: SR2 EB Driving Lane - Bridge Deck Dry - 61.7 - - - - 0 / 0.0 9/30/2014 9:40:42 AM
153-US-20 @ Sugar Creek (582027) Status Air Temp Sfc Temp Sub Temp Dew Temp Wind Precip Traffic Updated
Sensor [A]: Atmospheric - 53.2 - - 51.8 5.0 / W - - 9/30/2014 9:40:06 AM
Sensor [0]: US-20 EB Driving Dry - 63.5 64.4 - - - 6 / 52.2 9/30/2014 9:40:06 AM
Sensor [1]: US-20 WB Passing Dry - 64.4 - - - - 4 / 49.1 9/30/2014 9:40:06 AM
Sensor [2]: US-20 EB Driving BridgeDeck Dry - 60.8 - - - - 0 / 0.0 9/30/2014 9:40:06 AM
154-US-6 @ Sandusky River Br (582028) Status Air Temp Sfc Temp Sub Temp Dew Temp Wind Precip Traffic Updated
Sensor [A]: Atmospheric - 54.7 - - 54.7 6.8 / W - - 9/30/2014 9:40:08 AM
Sensor [0]: US-6 EB Approach Dry - 61.7 - - - - - 9/30/2014 9:40:08 AM
Sensor [1]: US-6 WB Deck Dry - 61.0 - - - - - 9/30/2014 9:40:08 AM
155-US 6 @ Pickeral Creek (582029) Status Air Temp Sfc Temp Sub Temp Dew Temp Wind Precip Traffic Updated
Sensor [A]: Atmospheric - 29.7 - - 29.3 8.7 / NW - - 9/30/2014 9:40:10 AM
Sensor [0]: US-6 WB Departure Error - - - - - - - 9/30/2014 9:40:10 AM
Sensor [1]: US-6 WB Deck Ice Warning - 22.6 - - - - - 9/30/2014 9:40:10 AM
156-CR 296 & US 20 MP 31.0 (582030) Status Air Temp Sfc Temp Sub Temp Dew Temp Wind Precip Traffic Updated
Sensor [A]: Atmospheric - 55.4 - - 55.4 8.1 / NW - - 9/30/2014 9:40:11 AM
Sensor [0]: US-20 WB Trace Moisture - 61.0 75.0 - - - - 9/30/2014 9:40:11 AM
157-US 23 @ MP 5.5 Seneca (582031) Status Air Temp Sfc Temp Sub Temp Dew Temp Wind Precip Traffic Updated
Sensor [A]: Atmospheric - 53.6 - - 52.9 10.6 / SW - - 9/30/2014 9:40:13 AM
Sensor [0]: US-23 NB Trace Moisture - 59.9 - - - - - 9/30/2014 9:40:13 AM
158-SR 12 @ Mp 7.0 Seneca (582032) Status Air Temp Sfc Temp Sub Temp Dew Temp Wind Precip Traffic Updated
Sensor [A]: Atmospheric - 53.2 - - 52.7 8.1 / NW - - 9/30/2014 9:40:15 AM
Sensor [0]: SR-12 WB Trace Moisture - 59.9 - - - - - 9/30/2014 9:40:15 AM
159-US 224 @ SR 53 Seneca (582033) Status Air Temp Sfc Temp Sub Temp Dew Temp Wind Precip Traffic Updated
Sensor [A]: Atmospheric - 55.6 - - 54.7 - Rain / 0.0 - 9/30/2014 9:40:17 AM
Sensor [0]: SR-224 EB Bridge Deck Wet - 59.9 - - - - - 9/30/2014 9:40:17 AM
Sensor [1]: US-224 EB Approach Trace Moisture - 59.9 - - - - - 9/30/2014 9:40:17 AM
160-SR 4 @ MP 2.35 Seneca (582034) Status Air Temp Sfc Temp Sub Temp Dew Temp Wind Precip Traffic Updated
Sensor [A]: Atmospheric - 56.1 - - 53.4 7.5 / N - - 9/30/2014 9:40:19 AM
161-I-90 @ SR-252 (562000) Status Air Temp Sfc Temp Sub Temp Dew Temp Wind Precip Traffic Updated
Sensor [A]: Atmospheric - 60.8 - - 60.4 3.1 / N - - 9/30/2014 9:40:04 AM
Sensor [0]: SR-252 NB RL over I-90 Wet - 61.7 - - - - - 9/30/2014 9:40:04 AM
Sensor [2]: I-90 EB N1 Lane Trace Moisture - 62.6 - - - - - 9/30/2014 9:40:04 AM
162-I-90 @ Abbey Rd. (562001) Status Air Temp Sfc Temp Sub Temp Dew Temp Wind Precip Traffic Updated
Sensor [A]: Atmospheric - - - - - / Unknown - - -
Sensor [0]: I-90 EB N3 Lane Wet - 74.7 82.2 - - - - 8/21/2011 12:10:14 AM
Sensor [2]: I-90 WB N3 Lane Bridge Wet - 71.8 - - - - - 8/21/2011 12:10:14 AM
163-I-90 @ E. 140th (562002) Status Air Temp Sfc Temp Sub Temp Dew Temp Wind Precip Traffic Updated
Sensor [A]: Atmospheric - 62.8 - - 62.8 2.5 / NE - - 9/30/2014 9:40:25 AM
Sensor [1]: I-90 WB N3 Lane Bridge Wet - 64.4 - - - - - 9/30/2014 9:40:25 AM
Sensor [2]: I-90 EB N3 Lane Bridge Wet - 64.4 - - - - - 9/30/2014 9:40:25 AM
164-I-271 @ I-90 (562003) Status Air Temp Sfc Temp Sub Temp Dew Temp Wind Precip Traffic Updated
Sensor [A]: Atmospheric - 77.5 - - 60.3 / Unknown - - 9/25/2014 1:30:24 PM
Sensor [0]: I-271 NB TG I-90 EB Dry - 96.4 - - - - - 9/25/2014 1:30:24 PM
Sensor [2]: I-271 NB TG I-90 WB Bridge Dry - 95.2 - - - - - 9/25/2014 1:30:24 PM
Sensor [3]: I-271 NB TG I-90 WB Dry - 99.0 - - - - - 9/25/2014 1:30:24 PM
165-I-480 @ SR-10 (562004) Status Air Temp Sfc Temp Sub Temp Dew Temp Wind Precip Traffic Updated
Sensor [A]: Atmospheric - 60.8 - - 60.6 1.9 / NW - - 9/30/2014 9:40:45 AM
Sensor [0]: I-480 EB N2 Lane Bridge Wet - 62.2 - - - - - 9/30/2014 9:40:45 AM
Sensor [1]: I-480 WB N2 Lane Bridge Wet - 62.1 - - - - - 9/30/2014 9:40:45 AM
166-I-71 @ Snow Rd. (562005) Status Air Temp Sfc Temp Sub Temp Dew Temp Wind Precip Traffic Updated
Sensor [A]: Atmospheric - 62.1 - - 62.1 2.5 / N - - 9/30/2014 9:40:47 AM
Sensor [0]: I-71 NB N3 Lane Bridge Trace Moisture - 62.2 - - - - - 9/30/2014 9:40:47 AM
Sensor [1]: I-71 SB N3 Lane Bridge Wet - 62.2 - - - - - 9/30/2014 9:40:47 AM
Sensor [2]: I-71 SB N3 Lane Trace Moisture - 62.6 - - - - - 9/30/2014 9:40:47 AM
167-I-77 @ I-480 (562006) Status Air Temp Sfc Temp Sub Temp Dew Temp Wind Precip Traffic Updated
Sensor [A]: Atmospheric - 60.1 - - 60.1 1.9 / SW - - 9/30/2014 9:40:49 AM
Sensor [0]: I-77 NB N2L Br @ SR-17 Error - - - - - - - 9/30/2014 9:40:49 AM
Sensor [1]: I-77 SB N2L Br @ SR-17 Error - - - - - - - 9/30/2014 9:40:49 AM
Sensor [3]: I-77 NB RL Br over I-480 Wet - 59.9 - - - - - 9/30/2014 9:40:49 AM
168-I-480 N @ Miles Rd. (562007) Status Air Temp Sfc Temp Sub Temp Dew Temp Wind Precip Traffic Updated
Sensor [A]: Atmospheric - 53.6 - - 46.0 1.2 / N - - 9/30/2014 9:40:03 AM
Sensor [0]: I-480 N WB N2 Lane Wet - 60.8 - - - - - 9/30/2014 9:40:03 AM
Sensor [1]: I-480 N WB N2 Lane Br Dry - 60.8 - - - - - 9/30/2014 9:40:03 AM
Sensor [2]: I-480 EB N2 Lane Br Trace Moisture - 60.8 - - - - - 9/30/2014 9:40:03 AM
169-I-271 @ US-322 (562008) Status Air Temp Sfc Temp Sub Temp Dew Temp Wind Precip Traffic Updated
Sensor [A]: Atmospheric - 60.6 - - 60.6 1.2 / SE - - 9/30/2014 9:40:05 AM
Sensor [0]: I-271 SB N2 Lane Br Trace Moisture - 61.7 - - - - - 9/30/2014 9:40:05 AM
Sensor [1]: I-271 SB N2 Lane Dry - 63.3 - - - - - 9/30/2014 9:40:05 AM
Sensor [2]: I-271 NB N2 Lane Br Trace Moisture - 61.7 - - - - - 9/30/2014 9:40:05 AM
Sensor [3]: I-271 NB N2 Lane Trace Moisture - 63.3 - - - - - 9/30/2014 9:40:05 AM
170-I-71 @ Drake Rd. (562009) Status Air Temp Sfc Temp Sub Temp Dew Temp Wind Precip Traffic Updated
Sensor [A]: Atmospheric - 60.6 - - 59.9 0.6 / SW - - 9/30/2014 9:40:07 AM
Sensor [0]: I-71 NB N2 Lane Trace Moisture - 62.4 70.0 - - - - 9/30/2014 9:40:07 AM
Sensor [1]: I-71 NB N2 Lane Br Trace Moisture - 61.7 - - - - - 9/30/2014 9:40:07 AM
Sensor [2]: I-71 SB N2 Lane Br Wet - 61.9 - - - - - 9/30/2014 9:40:07 AM
171-I-77 @ SR-82 (562010) Status Air Temp Sfc Temp Sub Temp Dew Temp Wind Precip Traffic Updated
Sensor [A]: Atmospheric - 61.2 - - 60.4 2.5 / S - - 9/30/2014 9:40:09 AM
Sensor [0]: I-77 NB N2 Lane Br Wet - 61.7 - - - - - 9/30/2014 9:40:09 AM
Sensor [1]: I-77 SB N2 Lane Br Wet - 60.8 - - - - - 9/30/2014 9:40:09 AM
Sensor [2]: I-77 SB N2 Lane Wet - 61.7 - - - - - 9/30/2014 9:40:09 AM
172-US-422 @ Chagrin Blvd. (562011) Status Air Temp Sfc Temp Sub Temp Dew Temp Wind Precip Traffic Updated
Sensor [A]: Atmospheric - 56.8 - - 54.5 0.6 / SE - - 9/30/2014 9:40:11 AM
Sensor [0]: US-422 WB N2 Lane Wet - 58.8 68.9 - - - - 9/30/2014 9:40:11 AM
Sensor [1]: US-422 WB N2 Lane Br Error - - - - - - - 9/30/2014 9:40:11 AM
Sensor [2]: US-422 EB N2 Lane Br Wet - 57.6 - - - - - 9/30/2014 9:40:11 AM
173-US-422 @ SR-44 (562012) Status Air Temp Sfc Temp Sub Temp Dew Temp Wind Precip Traffic Updated
Sensor [A]: Atmospheric - 58.1 - - 57.9 - Rain / 0.1 - 9/30/2014 9:40:13 AM
Sensor [2]: US-422 EB N2 Lane Br Wet - 59.9 - - - - - 9/30/2014 9:40:13 AM
174- SR-528 @SR-87 (562013) Status Air Temp Sfc Temp Sub Temp Dew Temp Wind Precip Traffic Updated
Sensor [A]: Atmospheric - 58.5 - - 58.5 3.7 / NE - - 9/30/2014 9:40:03 AM
Sensor [0]: SR528 NB Wet - 62.6 - - - - - 9/30/2014 9:40:03 AM
Sensor [1]: SR87 WB Trace Moisture - 59.9 - - - - - 9/30/2014 9:40:03 AM
175-SR-44 @ Mentor Rd. (562014) Status Air Temp Sfc Temp Sub Temp Dew Temp Wind Precip Traffic Updated
Sensor [A]: Atmospheric - 59.0 - - 59.0 - - - 9/30/2014 9:40:04 AM
Sensor [0]: SR44 NB Trace Moisture - 62.6 69.8 - - - - 9/30/2014 9:40:04 AM
176-SR-528 @ SR-166 (562015) Status Air Temp Sfc Temp Sub Temp Dew Temp Wind Precip Traffic Updated
Sensor [A]: Atmospheric - 59.9 - - 59.5 1.9 / W - - 9/30/2014 9:40:06 AM
Sensor [0]: SR-528 SB N of SR-166 Wet - 59.9 - - - - - 9/30/2014 9:40:06 AM
Sensor [1]: SR-166 WB W of SR-528 Wet - 60.8 - - - - - 9/30/2014 9:40:06 AM
177-I-90 @ Hermitage Rd. (562016) Status Air Temp Sfc Temp Sub Temp Dew Temp Wind Precip Traffic Updated
Sensor [A]: Atmospheric - 66.7 - - 66.7 1.2 / E - - 6/18/2014 8:10:08 AM
Sensor [0]: I-90 WB N2 Lane Br Error - - - - - - - 6/18/2014 8:10:08 AM
178-I-90 @ Paine Rd. (562017) Status Air Temp Sfc Temp Sub Temp Dew Temp Wind Precip Traffic Updated
Sensor [A]: Atmospheric - 63.9 - - 42.3 6.8 / E - - 5/3/2013 8:30:25 AM
Sensor [0]: I-90 WB N2 Lane Br Error - - - - - - - 5/3/2013 8:30:25 AM
179-US-20 @ Parmly Rd. (562018) Status Air Temp Sfc Temp Sub Temp Dew Temp Wind Precip Traffic Updated
Sensor [A]: Atmospheric - 61.5 - - 61.5 2.5 / S - - 9/30/2014 9:40:45 AM
Sensor [0]: US-20 WB N2 Lane Wet - 63.5 - - - - - 9/30/2014 9:40:45 AM
180-I270 @ US33 (38015) Status Air Temp Sfc Temp Sub Temp Dew Temp Wind Precip Traffic Updated
Sensor [A]: Atmospheric - 60.3 - - 60.3 3.7 / N - - 9/30/2014 9:40:04 AM
181-US32 @ Pike & Adams County Line (200180) Status Air Temp Sfc Temp Sub Temp Dew Temp Wind Precip Traffic Updated
Sensor [A]: Atmospheric - 62.1 - - 54.0 3.1 / SW - - 9/30/2014 9:41:45 AM
Sensor [0]: US32 EB Driving Dry - 73.4 - - - - 1 / 9.9 9/30/2014 9:41:45 AM
Sensor [1]: US32 WB Driving Dry - 69.8 - - - - 4 / 9.9 9/30/2014 9:41:45 AM
182-I71 @ SR665 Grove City Outpost (200181) Status Air Temp Sfc Temp Sub Temp Dew Temp Wind Precip Traffic Updated
Sensor [A]: Atmospheric - 61.7 - - 53.1 1.2 / N - - 9/30/2014 9:42:25 AM
Sensor [0]: IR71 NB Driving Dry - 71.6 - - - - 60 / 57.2 9/30/2014 9:42:25 AM
183-US30 @ SR68 (200182) Status Air Temp Sfc Temp Sub Temp Dew Temp Wind Precip Traffic Updated
Sensor [A]: Atmospheric - 54.5 - - 54.5 9.3 / N - - 9/30/2014 9:43:27 AM
Sensor [0]: US30 EB Driving Trace Moisture - 59.9 - - - - - 9/30/2014 9:43:27 AM
Sensor [1]: US30 WB Driving Bridgedeck Dry - 59.0 - - - - - 9/30/2014 9:43:27 AM
184 - SR562(Norwood Lateral) @ Reading Road (80000) Status Air Temp Sfc Temp Sub Temp Dew Temp Wind Precip Traffic Updated
Sensor [A]: Atmospheric - 65.3 - - 58.6 5.0 / NE - - 5/7/2013 11:00:57 AM
185 - River Road @ Kibby Lane (80001) Status Air Temp Sfc Temp Sub Temp Dew Temp Wind Precip Traffic Updated
Sensor [A]: Atmospheric - 62.4 - - - - - - 9/30/2014 9:40:33 AM
186-SR49 @ SR81 (200185) Status Air Temp Sfc Temp Sub Temp Dew Temp Wind Precip Traffic Updated
Sensor [A]: Atmospheric - 55.4 - - 54.5 1.9 / N - - 9/30/2014 9:43:32 AM
Sensor [0]: SR81 Eastbound Approach Dry - 66.2 - - - - - 9/30/2014 9:43:32 AM
Sensor [1]: SR81 Westbound Bridgedeck Dry - 62.6 - - - - - 9/30/2014 9:43:32 AM
187-SR15 @ SR613 (200186) Status Air Temp Sfc Temp Sub Temp Dew Temp Wind Precip Traffic Updated
Sensor [A]: Atmospheric - 51.8 - - 50.9 9.9 / N - - 9/30/2014 9:39:36 AM
Sensor [0]: SR15 NB Lane Wet - 62.4 - - - - - 9/30/2014 9:39:36 AM